Time;durP1;ratioP1;P1;durP2;ratioP2;P2;SDS_P1;SDS_P2;PMS_P1;PMS_P2;Temp;Humidity;BMP_temperature;BMP_pressure;BME280_temperature;BME280_humidity;BME280_pressure;Samples;Min_cycle;Max_cycle;Signal;HPM_P1;HPM_P2
2023/07/15 00:00:54;;;;;;;6.15;2.78;;;23.10;57.40;;;;;;5050961;28;20025;-66
2023/07/15 00:03:19;;;;;;;;;;;23.10;57.00;;;;;;5049032;28;20041;-66
2023/07/15 00:05:47;;;;;;;5.82;2.70;;;23.10;57.20;;;;;;5067497;28;20003;-66
2023/07/15 00:08:13;;;;;;;6.80;2.90;;;23.10;57.00;;;;;;5069007;28;20092;-66
2023/07/15 00:10:45;;;;;;;6.15;3.08;;;23.10;56.90;;;;;;5069962;28;20116;-66
2023/07/15 00:13:15;;;;;;;6.43;2.60;;;23.10;56.70;;;;;;5068565;28;20027;-66
2023/07/15 00:15:42;;;;;;;6.40;2.65;;;23.10;56.70;;;;;;5052435;28;20445;-66
2023/07/15 00:18:14;;;;;;;5.63;2.45;;;23.10;56.60;;;;;;5067216;28;20811;-66
2023/07/15 00:20:41;;;;;;;6.55;2.58;;;23.10;56.40;;;;;;5066053;28;20017;-66
2023/07/15 00:23:18;;;;;;;6.15;2.65;;;23.10;56.30;;;;;;5051574;28;20031;-66
2023/07/15 00:25:44;;;;;;;6.72;2.90;;;23.10;56.20;;;;;;5050689;28;20020;-66
2023/07/15 00:28:10;;;;;;;8.57;2.45;;;23.00;56.20;;;;;;5052260;28;20047;-65
2023/07/15 00:30:37;;;;;;;6.28;2.50;;;23.00;56.10;;;;;;5070663;28;20039;-66
2023/07/15 00:33:03;;;;;;;4.85;2.17;;;23.00;55.90;;;;;;5068321;28;20094;-66
2023/07/15 00:35:29;;;;;;;8.13;3.05;;;23.00;55.60;;;;;;5054111;28;20174;-66
2023/07/15 00:37:57;;;;;;;6.30;2.35;;;23.00;55.40;;;;;;5071003;28;20099;-66
2023/07/15 00:40:22;;;;;;;5.93;2.75;;;23.00;55.40;;;;;;5071658;28;20021;-66
2023/07/15 00:43:25;;;;;;;7.55;2.50;;;23.00;55.50;;;;;;5071726;28;20471;-66
2023/07/15 00:46:23;;;;;;;6.22;2.70;;;23.00;55.40;;;;;;5038199;28;20064;-66
2023/07/15 00:49:02;;;;;;;5.97;2.60;;;23.00;55.30;;;;;;5068636;28;20107;-66
2023/07/15 00:51:31;;;;;;;5.78;2.28;;;23.00;55.30;;;;;;5037237;28;20047;-66
2023/07/15 00:53:58;;;;;;;5.15;2.38;;;22.90;55.10;;;;;;5071840;28;20026;-66
2023/07/15 00:56:26;;;;;;;6.70;2.33;;;23.00;55.10;;;;;;5070859;28;20131;-67
2023/07/15 00:58:52;;;;;;;6.00;2.40;;;23.00;55.10;;;;;;5069520;28;20016;-66
2023/07/15 01:01:18;;;;;;;7.07;2.42;;;22.90;54.90;;;;;;5038696;28;20047;-66
2023/07/15 01:03:45;;;;;;;5.15;2.35;;;22.90;54.60;;;;;;5070187;28;20033;-66
2023/07/15 01:06:11;;;;;;;6.05;2.25;;;23.00;54.20;;;;;;5071479;28;20115;-67
2023/07/15 01:08:37;;;;;;;7.00;2.85;;;23.00;54.00;;;;;;5071164;28;20094;-66
2023/07/15 01:11:06;;;;;;;5.30;2.40;;;23.00;53.60;;;;;;5049810;28;20449;-66
2023/07/15 01:13:32;;;;;;;6.25;2.33;;;23.00;53.40;;;;;;5055470;28;20028;-66
2023/07/15 01:15:58;;;;;;;5.55;2.20;;;23.00;53.10;;;;;;5051868;28;20028;-66
2023/07/15 01:18:24;;;;;;;7.30;2.53;;;23.10;53.10;;;;;;5051782;28;20052;-66
2023/07/15 01:20:53;;;;;;;6.15;2.85;;;23.10;53.00;;;;;;5054016;28;20063;-66
2023/07/15 01:23:20;;;;;;;5.53;2.42;;;23.10;52.70;;;;;;5074071;28;20059;-66
2023/07/15 01:25:46;;;;;;;5.72;2.42;;;23.20;52.60;;;;;;5054943;28;20048;-66
2023/07/15 01:28:11;;;;;;;4.32;2.10;;;23.20;52.50;;;;;;5053455;28;20025;-66
2023/07/15 01:30:37;;;;;;;5.32;2.20;;;23.20;52.40;;;;;;5071320;28;20340;-66
2023/07/15 01:33:03;;;;;;;4.60;2.20;;;23.20;52.20;;;;;;5073508;28;20054;-66
2023/07/15 01:35:29;;;;;;;5.13;2.50;;;23.30;52.20;;;;;;5055558;28;20039;-67
2023/07/15 01:37:54;;;;;;;6.38;2.33;;;23.30;52.10;;;;;;5070005;28;20020;-66
2023/07/15 01:40:21;;;;;;;5.85;2.22;;;23.30;52.00;;;;;;5051329;28;20153;-67
2023/07/15 01:42:47;;;;;;;6.22;2.30;;;23.30;51.80;;;;;;5068421;28;20051;-66
2023/07/15 01:45:13;;;;;;;4.60;2.33;;;23.40;51.80;;;;;;5070126;28;20028;-65
2023/07/15 01:47:39;;;;;;;5.75;2.08;;;23.40;51.60;;;;;;5071184;28;20435;-66
2023/07/15 01:50:05;;;;;;;4.53;2.05;;;23.40;51.40;;;;;;5068459;28;20060;-65
2023/07/15 01:52:33;;;;;;;6.53;2.30;;;23.40;51.30;;;;;;5054699;28;20052;-66
2023/07/15 01:54:58;;;;;;;4.80;2.33;;;23.40;51.20;;;;;;5070216;28;20390;-66
2023/07/15 01:57:29;;;;;;;6.57;2.17;;;23.50;51.30;;;;;;5070344;28;20059;-66
2023/07/15 01:59:57;;;;;;;4.45;1.80;;;23.40;51.20;;;;;;5053655;28;20460;-66
2023/07/15 02:02:24;;;;;;;7.05;2.30;;;23.40;51.10;;;;;;5055634;28;20049;-66
2023/07/15 02:04:50;;;;;;;6.75;2.20;;;23.50;51.00;;;;;;5072359;28;20111;-66
2023/07/15 02:07:16;;;;;;;5.35;2.10;;;23.50;50.80;;;;;;5071274;28;21362;-67
2023/07/15 02:09:41;;;;;;;5.07;2.20;;;23.50;50.90;;;;;;5067554;28;20052;-66
2023/07/15 02:12:08;;;;;;;4.50;1.90;;;23.50;50.90;;;;;;5037243;28;20025;-66
2023/07/15 02:14:38;;;;;;;5.38;2.22;;;23.50;50.90;;;;;;5053978;28;20020;-66
2023/07/15 02:17:05;;;;;;;5.22;2.33;;;23.50;50.80;;;;;;5049457;28;20048;-66
2023/07/15 02:19:31;;;;;;;5.15;2.03;;;23.40;50.60;;;;;;5072709;28;20043;-66
2023/07/15 02:21:58;;;;;;;5.03;1.80;;;23.50;50.50;;;;;;5054428;28;20024;-66
2023/07/15 02:24:24;;;;;;;5.75;1.98;;;23.50;50.50;;;;;;5054525;28;20017;-66
2023/07/15 02:26:50;;;;;;;4.63;2.10;;;23.50;50.50;;;;;;5071081;28;20437;-66
2023/07/15 02:29:16;;;;;;;4.30;2.00;;;23.50;50.50;;;;;;5069346;28;20462;-66
2023/07/15 02:31:42;;;;;;;6.97;2.10;;;23.40;50.50;;;;;;5053107;28;20017;-66
2023/07/15 02:34:08;;;;;;;7.18;2.25;;;23.40;50.70;;;;;;5068486;28;20016;-66
2023/07/15 02:36:35;;;;;;;6.63;2.03;;;23.40;50.70;;;;;;5052169;28;20500;-66
2023/07/15 02:39:04;;;;;;;4.63;1.80;;;23.40;50.50;;;;;;5048085;28;20115;-66
2023/07/15 02:41:29;;;;;;;3.70;1.60;;;23.40;50.50;;;;;;5070080;28;20381;-66
2023/07/15 02:43:55;;;;;;;5.30;2.00;;;23.40;50.60;;;;;;5051585;28;20032;-66
2023/07/15 02:46:21;;;;;;;6.05;2.33;;;23.40;50.80;;;;;;5052262;28;20480;-65
2023/07/15 02:48:47;;;;;;;5.93;2.20;;;23.30;50.90;;;;;;5051157;28;20059;-66
2023/07/15 02:51:13;;;;;;;8.40;2.28;;;23.30;51.00;;;;;;5068724;28;20119;-66
2023/07/15 02:53:39;;;;;;;5.03;2.08;;;23.30;51.20;;;;;;5068063;28;20066;-66
2023/07/15 02:56:06;;;;;;;5.15;2.33;;;23.20;51.30;;;;;;5067506;28;20032;-65
2023/07/15 02:58:32;;;;;;;5.78;2.00;;;23.20;51.40;;;;;;5052309;28;20034;-66
2023/07/15 03:00:57;;;;;;;4.50;1.92;;;23.20;51.50;;;;;;5066000;28;20169;-66
2023/07/15 03:03:23;;;;;;;4.50;2.00;;;23.10;51.50;;;;;;5067750;28;20093;-66
2023/07/15 03:05:50;;;;;;;17.25;2.42;;;23.10;51.60;;;;;;5069478;28;20111;-66
2023/07/15 03:08:16;;;;;;;5.55;2.25;;;23.10;51.70;;;;;;5051363;28;20028;-66
2023/07/15 03:10:45;;;;;;;3.60;1.70;;;23.10;52.00;;;;;;5036144;28;20017;-66
2023/07/15 03:13:11;;;;;;;6.53;2.17;;;23.00;52.00;;;;;;5051790;28;20075;-66
2023/07/15 03:15:39;;;;;;;6.60;2.50;;;23.00;52.10;;;;;;5050494;28;20024;-67
2023/07/15 03:18:05;;;;;;;5.25;2.08;;;23.00;52.10;;;;;;5052846;28;20048;-67
2023/07/15 03:20:31;;;;;;;5.30;1.90;;;22.90;52.30;;;;;;5051652;28;20402;-66
2023/07/15 03:22:57;;;;;;;4.95;2.00;;;22.90;52.50;;;;;;5068969;28;20132;-66
2023/07/15 03:25:24;;;;;;;5.45;1.88;;;22.90;52.60;;;;;;5049006;28;20143;-66
2023/07/15 03:27:50;;;;;;;5.25;2.15;;;22.90;52.70;;;;;;5067528;28;20036;-66
2023/07/15 03:30:17;;;;;;;6.13;2.50;;;22.90;52.80;;;;;;5068885;28;20028;-66
2023/07/15 03:32:44;;;;;;;5.47;2.40;;;22.80;52.80;;;;;;5035665;28;20025;-65
2023/07/15 03:35:14;;;;;;;;;;;22.90;52.90;;;;;;5050332;28;20159;-66
2023/07/15 03:37:42;;;;;;;5.18;2.03;;;22.80;52.90;;;;;;5068641;28;20003;-67
2023/07/15 03:40:10;;;;;;;6.72;2.17;;;22.70;53.20;;;;;;5069681;28;20121;-66
2023/07/15 03:42:36;;;;;;;6.80;2.20;;;22.70;53.30;;;;;;5068556;28;20040;-66
2023/07/15 03:45:02;;;;;;;6.35;2.38;;;22.70;54.00;;;;;;5069308;28;20020;-66
2023/07/15 03:47:27;;;;;;;5.07;2.20;;;22.70;53.50;;;;;;5052749;28;20031;-66
2023/07/15 03:49:53;;;;;;;6.82;2.55;;;22.70;54.20;;;;;;5069696;28;20025;-66
2023/07/15 03:52:19;;;;;;;7.15;2.00;;;22.60;53.70;;;;;;5069427;28;20071;-65
2023/07/15 03:54:45;;;;;;;6.93;2.40;;;22.60;53.80;;;;;;5070276;28;20017;-66
2023/07/15 03:57:11;;;;;;;7.38;2.60;;;22.50;53.90;;;;;;5051605;28;20360;-65
2023/07/15 03:59:37;;;;;;;6.43;2.40;;;22.50;54.00;;;;;;5070009;28;20043;-67
2023/07/15 04:02:03;;;;;;;5.55;2.15;;;22.50;54.20;;;;;;5069128;28;20028;-66
2023/07/15 04:04:29;;;;;;;5.70;2.17;;;22.50;54.50;;;;;;5068116;28;20044;-65
2023/07/15 04:06:58;;;;;;;6.95;2.17;;;22.50;54.70;;;;;;5049603;28;20032;-67
2023/07/15 04:09:24;;;;;;;8.05;2.30;;;22.50;54.80;;;;;;5070513;28;20442;-66
2023/07/15 04:11:50;;;;;;;5.05;2.30;;;22.40;54.70;;;;;;5053921;28;20112;-66
2023/07/15 04:14:16;;;;;;;6.18;2.33;;;22.40;54.70;;;;;;5075240;28;20322;-66
2023/07/15 04:16:42;;;;;;;5.38;2.13;;;22.40;54.80;;;;;;5055185;28;20037;-66
2023/07/15 04:19:09;;;;;;;4.43;2.10;;;22.40;54.90;;;;;;5074864;28;20047;-66
2023/07/15 04:21:34;;;;;;;4.82;1.98;;;22.40;55.00;;;;;;5072009;28;20025;-66
2023/07/15 04:24:00;;;;;;;5.32;2.33;;;22.40;55.20;;;;;;5069447;28;20086;-65
2023/07/15 04:26:27;;;;;;;6.13;2.55;;;22.40;55.50;;;;;;5051417;28;20040;-66
2023/07/15 04:28:57;;;;;;;6.10;2.22;;;22.30;55.80;;;;;;5066765;28;20111;-66
2023/07/15 04:31:23;;;;;;;5.22;2.10;;;22.30;56.20;;;;;;5069757;28;20055;-66
2023/07/15 04:33:51;;;;;;;5.88;2.20;;;22.30;56.40;;;;;;5068161;28;20802;-65
2023/07/15 04:36:19;;;;;;;5.90;2.45;;;22.30;56.60;;;;;;5069281;28;20031;-66
2023/07/15 04:38:45;;;;;;;5.97;2.20;;;22.30;56.60;;;;;;5063906;28;20029;-65
2023/07/15 04:41:11;;;;;;;6.28;2.75;;;22.30;56.50;;;;;;5051539;28;20407;-66
2023/07/15 04:43:37;;;;;;;5.60;2.45;;;22.30;56.60;;;;;;5066511;28;20357;-65
2023/07/15 04:46:04;;;;;;;6.00;2.30;;;22.40;56.70;;;;;;5066544;28;20033;-66
2023/07/15 04:48:29;;;;;;;6.47;2.30;;;22.40;56.40;;;;;;5066816;28;20514;-65
2023/07/15 04:50:56;;;;;;;6.05;2.35;;;22.40;56.50;;;;;;5067531;28;20025;-66
2023/07/15 04:53:21;;;;;;;5.88;2.38;;;22.40;57.10;;;;;;5068216;28;20078;-66
2023/07/15 04:55:48;;;;;;;6.30;2.60;;;22.40;56.40;;;;;;5050497;28;20357;-65
2023/07/15 04:58:17;;;;;;;7.30;2.15;;;22.50;56.20;;;;;;5067359;28;20020;-65
2023/07/15 05:00:44;;;;;;;5.90;2.58;;;22.50;56.20;;;;;;5066695;28;20047;-65
2023/07/15 05:03:11;;;;;;;5.55;2.38;;;22.50;56.00;;;;;;5067009;28;20028;-66
2023/07/15 05:05:36;;;;;;;5.25;2.38;;;22.60;55.90;;;;;;5067114;28;20021;-64
2023/07/15 05:08:13;;;;;;;5.65;2.50;;;22.60;56.10;;;;;;5066903;28;20520;-65
2023/07/15 05:10:40;;;;;;;6.50;2.53;;;22.70;56.30;;;;;;5049339;28;20044;-65
2023/07/15 05:13:09;;;;;;;5.72;2.70;;;22.60;55.90;;;;;;5032541;28;20035;-65
2023/07/15 05:15:38;;;;;;;7.30;2.45;;;22.70;56.10;;;;;;5069711;28;20341;-65
2023/07/15 05:18:06;;;;;;;7.03;2.40;;;22.70;55.90;;;;;;5071875;28;20245;-65
2023/07/15 05:20:33;;;;;;;6.65;2.75;;;22.80;55.90;;;;;;5056356;28;20039;-66
2023/07/15 05:23:02;;;;;;;7.57;2.63;;;22.90;55.60;;;;;;5073160;28;20047;-66
2023/07/15 05:25:29;;;;;;;7.85;2.35;;;23.40;55.00;;;;;;5056313;28;20028;-66
2023/07/15 05:27:55;;;;;;;22.70;4.03;;;23.60;54.30;;;;;;5057330;28;20028;-65
2023/07/15 05:30:22;;;;;;;7.63;3.22;;;23.60;54.40;;;;;;5069917;28;20090;-66
2023/07/15 05:32:48;;;;;;;9.30;2.20;;;23.60;54.40;;;;;;5054233;28;20098;-66
2023/07/15 05:35:14;;;;;;;5.00;2.17;;;23.60;54.50;;;;;;5053016;28;20021;-66
2023/07/15 05:37:40;;;;;;;5.10;2.28;;;23.60;54.60;;;;;;5054462;28;20331;-66
2023/07/15 05:40:12;;;;;;;5.55;2.10;;;23.60;54.60;;;;;;5070309;28;20036;-66
2023/07/15 05:42:42;;;;;;;6.18;2.63;;;23.60;54.40;;;;;;5071503;28;20099;-67
2023/07/15 05:45:08;;;;;;;7.97;2.23;;;23.60;54.50;;;;;;5070527;28;20028;-66
2023/07/15 05:47:34;;;;;;;6.40;2.60;;;23.70;54.80;;;;;;5055374;28;20048;-68
2023/07/15 05:50:01;;;;;;;4.68;2.25;;;23.70;55.00;;;;;;5055051;28;20032;-67
2023/07/15 05:52:27;;;;;;;6.13;2.20;;;23.70;54.80;;;;;;5038553;28;20043;-67
2023/07/15 05:54:53;;;;;;;6.07;2.58;;;23.80;54.90;;;;;;5057037;28;20024;-67
2023/07/15 05:57:19;;;;;;;5.70;2.47;;;23.80;54.70;;;;;;5072011;28;20094;-67
2023/07/15 05:59:45;;;;;;;5.28;2.30;;;23.90;54.70;;;;;;5054576;28;20033;-67
2023/07/15 06:02:11;;;;;;;6.10;2.38;;;23.90;55.00;;;;;;5070350;28;20032;-67
2023/07/15 06:04:36;;;;;;;6.55;2.70;;;24.00;55.10;;;;;;5067142;28;20036;-68
2023/07/15 06:07:02;;;;;;;5.47;2.38;;;24.10;55.10;;;;;;5068031;28;20692;-67
2023/07/15 06:09:28;;;;;;;6.30;2.60;;;24.20;55.30;;;;;;5069998;28;20119;-67
2023/07/15 06:11:54;;;;;;;5.25;2.42;;;24.20;55.30;;;;;;5052475;28;20082;-67
2023/07/15 06:14:19;;;;;;;5.35;2.45;;;24.20;55.40;;;;;;5052286;28;20017;-67
2023/07/15 06:16:45;;;;;;;6.68;2.38;;;24.30;55.50;;;;;;5073564;28;20346;-67
2023/07/15 06:19:11;;;;;;;5.45;2.33;;;24.30;55.50;;;;;;5075847;28;20479;-67
2023/07/15 06:21:37;;;;;;;4.93;2.30;;;24.40;55.60;;;;;;5056882;28;20143;-67
2023/07/15 06:24:03;;;;;;;5.72;2.53;;;24.40;55.20;;;;;;5056269;28;20085;-67
2023/07/15 06:26:29;;;;;;;5.72;2.25;;;24.50;54.90;;;;;;5075980;28;20446;-67
2023/07/15 06:28:55;;;;;;;5.65;2.10;;;24.50;54.70;;;;;;5075422;28;20047;-67
2023/07/15 06:31:20;;;;;;;6.15;2.30;;;24.60;54.50;;;;;;5075792;28;20021;-68
2023/07/15 06:33:48;;;;;;;6.20;2.38;;;24.70;54.20;;;;;;5073951;28;20030;-68
2023/07/15 06:36:14;;;;;;;6.45;2.60;;;24.80;54.20;;;;;;5040098;28;20036;-68
2023/07/15 06:38:40;;;;;;;5.22;2.38;;;24.90;54.30;;;;;;5073383;28;20020;-68
2023/07/15 06:41:05;;;;;;;7.05;2.58;;;25.10;54.20;;;;;;5075225;28;20012;-68
2023/07/15 06:43:31;;;;;;;5.03;2.55;;;25.20;54.30;;;;;;5075177;28;20365;-68
2023/07/15 06:45:57;;;;;;;5.45;2.50;;;25.30;54.20;;;;;;5056513;28;20039;-68
2023/07/15 06:48:23;;;;;;;4.50;2.10;;;25.30;54.20;;;;;;5074477;28;20554;-68
2023/07/15 06:50:49;;;;;;;4.90;1.85;;;25.50;54.30;;;;;;5075204;28;20487;-68
2023/07/15 06:53:15;;;;;;;8.32;2.35;;;25.50;54.50;;;;;;5075215;28;20013;-68
2023/07/15 06:55:40;;;;;;;4.70;2.13;;;25.50;54.90;;;;;;5074220;28;20040;-68
2023/07/15 06:58:06;;;;;;;5.03;2.35;;;25.50;55.10;;;;;;5073752;28;20021;-68
2023/07/15 07:00:33;;;;;;;4.85;1.95;;;25.60;55.40;;;;;;5074925;28;20095;-68
2023/07/15 07:03:00;;;;;;;4.18;1.83;;;25.70;55.30;;;;;;5057516;28;20417;-68
2023/07/15 07:05:26;;;;;;;4.18;1.98;;;25.90;55.30;;;;;;5075094;28;20421;-68
2023/07/15 07:07:52;;;;;;;4.43;1.90;;;26.00;55.30;;;;;;5073171;28;20021;-68
2023/07/15 07:10:18;;;;;;;6.28;1.80;;;26.20;55.50;;;;;;5057155;28;20020;-68
2023/07/15 07:12:44;;;;;;;5.18;1.88;;;26.30;55.40;;;;;;5074881;28;20370;-68
2023/07/15 07:15:10;;;;;;;4.20;1.63;;;26.50;55.30;;;;;;5074827;28;20424;-68
2023/07/15 07:17:36;;;;;;;3.92;1.70;;;26.60;55.00;;;;;;5073799;28;20051;-68
2023/07/15 07:20:03;;;;;;;4.57;1.80;;;26.70;55.10;;;;;;5072385;28;20032;-68
2023/07/15 07:22:29;;;;;;;5.72;2.10;;;26.70;55.30;;;;;;5056626;28;20037;-65
2023/07/15 07:24:55;;;;;;;3.95;1.85;;;26.70;55.40;;;;;;5073032;28;20105;-64
2023/07/15 07:27:21;;;;;;;5.90;1.70;;;26.70;55.20;;;;;;5054410;28;20067;-66
2023/07/15 07:29:47;;;;;;;4.00;1.85;;;26.80;55.10;;;;;;5070630;28;20111;-65
2023/07/15 07:32:12;;;;;;;5.75;1.70;;;27.00;55.00;;;;;;5039559;28;20043;-66
2023/07/15 07:34:38;;;;;;;4.88;1.95;;;27.20;54.90;;;;;;5070958;28;20027;-65
2023/07/15 07:37:04;;;;;;;5.10;1.75;;;27.40;54.80;;;;;;5066152;28;20016;-65
2023/07/15 07:39:30;;;;;;;2.78;1.40;;;27.50;54.50;;;;;;5050063;28;20025;-65
2023/07/15 07:41:55;;;;;;;3.88;1.73;;;27.70;54.40;;;;;;5069992;28;20133;-65
2023/07/15 07:44:22;;;;;;;4.68;1.95;;;27.90;54.10;;;;;;5051097;28;20034;-65
2023/07/15 07:46:48;;;;;;;5.15;2.00;;;28.10;54.60;;;;;;5070885;28;20105;-65
2023/07/15 07:49:14;;;;;;;4.70;1.63;;;28.30;53.70;;;;;;5066411;28;20035;-65
2023/07/15 07:51:39;;;;;;;5.78;1.92;;;28.50;53.20;;;;;;5068982;28;20020;-64
2023/07/15 07:54:05;;;;;;;4.65;1.63;;;28.40;53.10;;;;;;5070238;28;20048;-65
2023/07/15 07:56:31;;;;;;;4.82;1.80;;;28.50;52.90;;;;;;5069796;28;20514;-65
2023/07/15 07:58:57;;;;;;;4.57;1.90;;;28.70;52.60;;;;;;5067108;28;20445;-66
2023/07/15 08:01:27;;;;;;;4.63;2.15;;;28.80;51.80;;;;;;5067298;28;20043;-64
2023/07/15 08:03:55;;;;;;;5.20;1.90;;;28.90;51.20;;;;;;5070392;28;20036;-65
2023/07/15 08:06:22;;;;;;;3.53;1.50;;;28.90;51.40;;;;;;5070134;28;20079;-65
2023/07/15 08:08:48;;;;;;;3.75;1.63;;;28.90;51.20;;;;;;5052971;28;20052;-65
2023/07/15 08:11:14;;;;;;;3.22;1.60;;;28.70;51.30;;;;;;5068020;28;20067;-65
2023/07/15 08:13:39;;;;;;;4.43;2.00;;;28.60;51.70;;;;;;5068190;28;20020;-66
2023/07/15 08:16:05;;;;;;;4.93;1.67;;;28.60;51.80;;;;;;5052390;28;20024;-66
2023/07/15 08:18:31;;;;;;;3.83;1.80;;;28.60;51.60;;;;;;5068616;28;20044;-67
2023/07/15 08:20:57;;;;;;;3.90;1.52;;;28.70;51.60;;;;;;5067404;28;20052;-67
2023/07/15 08:23:22;;;;;;;3.72;1.65;;;28.90;51.60;;;;;;5035029;28;20024;-67
2023/07/15 08:25:48;;;;;;;5.28;1.50;;;28.90;51.40;;;;;;5068766;28;20063;-66
2023/07/15 08:28:14;;;;;;;5.72;1.65;;;28.80;51.50;;;;;;5053562;28;20035;-66
2023/07/15 08:30:40;;;;;;;4.82;1.73;;;28.60;51.70;;;;;;5069686;28;20033;-66
2023/07/15 08:33:06;;;;;;;3.80;1.60;;;28.40;51.80;;;;;;5067836;28;20043;-66
2023/07/15 08:35:34;;;;;;;2.75;1.48;;;28.30;52.20;;;;;;5052028;28;20356;-66
2023/07/15 08:37:59;;;;;;;4.07;1.50;;;28.20;52.40;;;;;;5052951;28;20020;-66
2023/07/15 08:40:26;;;;;;;5.60;1.40;;;28.10;52.70;;;;;;5068243;28;20540;-66
2023/07/15 08:42:52;;;;;;;2.72;1.40;;;28.00;53.00;;;;;;5068688;28;20032;-66
2023/07/15 08:45:19;;;;;;;4.18;1.70;;;27.80;53.10;;;;;;5051568;28;20062;-66
2023/07/15 08:47:46;;;;;;;3.10;1.65;;;27.80;53.10;;;;;;5054085;28;20349;-66
2023/07/15 08:50:15;;;;;;;3.78;1.63;;;27.80;53.30;;;;;;5071025;28;20310;-66
2023/07/15 08:52:43;;;;;;;2.40;1.30;;;27.70;53.40;;;;;;5071764;28;20028;-66
2023/07/15 08:55:09;;;;;;;3.50;1.55;;;27.70;53.60;;;;;;5072344;28;20089;-66
2023/07/15 08:57:35;;;;;;;5.82;1.48;;;27.70;53.60;;;;;;5073164;28;20116;-66
2023/07/15 09:00:07;;;;;;;3.58;1.50;;;27.80;53.50;;;;;;5071370;28;20115;-66
2023/07/15 09:02:37;;;;;;;5.15;1.60;;;27.90;53.30;;;;;;5073123;28;20405;-66
2023/07/15 09:05:10;;;;;;;2.88;1.40;;;28.00;53.20;;;;;;5055308;28;20043;-65
2023/07/15 09:07:57;;;;;;;2.15;1.20;;;27.80;53.10;;;;;;5070741;28;20028;-66
2023/07/15 09:10:23;;;;;;;4.53;1.55;;;27.70;53.30;;;;;;5054403;28;20059;-65
2023/07/15 09:12:54;;;;;;;3.00;1.25;;;27.50;53.50;;;;;;5072188;28;20559;-65
2023/07/15 09:15:20;;;;;;;4.38;1.50;;;27.40;54.00;;;;;;5070468;28;20024;-66
2023/07/15 09:17:53;;;;;;;8.40;1.67;;;27.30;54.10;;;;;;5070879;28;20423;-65
2023/07/15 09:20:21;;;;;;;3.97;1.20;;;27.30;53.90;;;;;;5052426;28;20039;-66
2023/07/15 09:22:54;;;;;;;1.48;1.00;;;27.30;54.20;;;;;;5054322;28;20042;-65
2023/07/15 09:25:22;;;;;;;2.70;1.17;;;27.20;54.20;;;;;;5053742;28;20052;-66
2023/07/15 09:27:48;;;;;;;3.20;1.30;;;27.10;54.10;;;;;;5050738;28;20443;-65
2023/07/15 09:30:14;;;;;;;2.80;1.20;;;27.10;54.20;;;;;;5055458;28;20108;-65
2023/07/15 09:32:40;;;;;;;3.63;1.45;;;27.00;54.30;;;;;;5053550;28;20504;-66
2023/07/15 09:35:07;;;;;;;4.07;1.25;;;26.90;54.50;;;;;;5073596;28;20044;-66
2023/07/15 09:37:34;;;;;;;3.40;1.40;;;26.90;54.50;;;;;;5069282;28;20025;-67
2023/07/15 09:40:02;;;;;;;3.55;1.38;;;26.80;54.70;;;;;;5052884;28;20032;-66
2023/07/15 09:42:28;;;;;;;3.25;1.45;;;26.70;55.00;;;;;;5054453;28;20381;-66
2023/07/15 09:44:54;;;;;;;4.80;1.63;;;26.60;55.30;;;;;;5050670;28;20025;-65
2023/07/15 09:47:20;;;;;;;2.88;1.42;;;26.50;55.60;;;;;;5068517;28;20029;-66
2023/07/15 09:49:46;;;;;;;4.10;1.70;;;26.40;55.80;;;;;;5071673;28;20016;-65
2023/07/15 09:52:14;;;;;;;4.25;1.60;;;26.30;56.00;;;;;;5071833;28;20021;-66
2023/07/15 09:54:42;;;;;;;5.18;1.50;;;26.30;56.10;;;;;;5068855;28;20021;-66
2023/07/15 09:57:12;;;;;;;4.72;1.67;;;26.20;56.10;;;;;;5054047;28;20463;-66
2023/07/15 09:59:47;;;;;;;4.88;1.88;;;26.20;56.20;;;;;;5069109;28;20089;-66
2023/07/15 10:02:36;;;;;;;3.65;1.50;;;26.30;56.30;;;;;;5053209;28;20028;-66
2023/07/15 10:05:03;;;;;;;4.95;1.20;;;26.50;56.30;;;;;;5062451;28;20460;-66
2023/07/15 10:07:32;;;;;;;4.68;1.58;;;26.60;56.00;;;;;;5051732;28;20028;-66
2023/07/15 10:09:58;;;;;;;4.07;2.00;;;26.80;55.80;;;;;;5071046;28;20027;-66
2023/07/15 10:12:27;;;;;;;3.17;1.50;;;26.90;55.60;;;;;;5069008;28;20063;-66
2023/07/15 10:14:53;;;;;;;4.22;1.98;;;27.00;55.40;;;;;;5056991;28;20100;-65
2023/07/15 10:17:19;;;;;;;4.28;1.65;;;27.00;55.50;;;;;;5055956;28;20036;-66
2023/07/15 10:19:49;;;;;;;3.70;1.50;;;26.90;55.30;;;;;;5053640;28;20330;-65
2023/07/15 10:22:21;;;;;;;3.58;1.65;;;26.80;55.30;;;;;;5052915;28;20039;-66
2023/07/15 10:24:55;;;;;;;5.10;2.15;;;26.60;55.20;;;;;;5050268;28;20028;-66
2023/07/15 10:27:25;;;;;;;5.07;1.92;;;26.50;55.30;;;;;;5070543;28;20029;-66
2023/07/15 10:30:13;;;;;;;4.50;1.58;;;26.40;55.40;;;;;;5069174;28;20035;-66
2023/07/15 10:33:08;;;;;;;7.10;2.00;;;26.30;55.20;;;;;;5069108;28;20099;-66
2023/07/15 10:35:40;;;;;;;4.90;1.90;;;26.30;55.30;;;;;;5069466;28;20035;-66
2023/07/15 10:38:29;;;;;;;4.85;1.90;;;26.20;55.30;;;;;;5052113;28;20020;-66
2023/07/15 10:41:02;;;;;;;4.80;2.00;;;26.20;55.20;;;;;;5069214;28;20051;-65
2023/07/15 10:43:34;;;;;;;4.13;1.95;;;26.20;55.60;;;;;;5062032;28;20430;-66
2023/07/15 10:46:17;;;;;;;6.13;1.92;;;26.10;55.60;;;;;;5068720;28;20036;-66
2023/07/15 10:48:44;;;;;;;4.50;1.95;;;26.10;56.20;;;;;;5068524;28;20151;-65
2023/07/15 10:51:11;;;;;;;4.47;1.88;;;26.10;55.60;;;;;;5051534;28;20039;-65
2023/07/15 10:53:37;;;;;;;4.55;1.80;;;26.10;55.90;;;;;;5035828;28;20027;-65
2023/07/15 10:56:10;;;;;;;5.93;1.95;;;26.10;56.20;;;;;;5069162;28;20032;-66
2023/07/15 10:58:36;;;;;;;5.28;1.85;;;26.00;56.50;;;;;;5069352;28;20044;-65
2023/07/15 11:01:05;;;;;;;4.47;1.90;;;26.00;56.80;;;;;;5034519;28;20328;-66
2023/07/15 11:03:35;;;;;;;5.40;2.25;;;25.90;57.00;;;;;;5071613;28;20107;-65
2023/07/15 11:06:02;;;;;;;4.10;1.90;;;25.90;57.30;;;;;;5052174;28;20036;-65
2023/07/15 11:08:28;;;;;;;4.88;2.20;;;25.90;57.90;;;;;;5068523;28;20104;-66
2023/07/15 11:11:02;;;;;;;5.38;1.75;;;25.80;58.30;;;;;;5051883;28;20043;-66
2023/07/15 11:13:29;;;;;;;5.78;2.15;;;25.80;58.30;;;;;;5068120;28;20024;-65
2023/07/15 11:15:55;;;;;;;6.75;1.88;;;25.80;58.40;;;;;;5068149;28;20062;-65
2023/07/15 11:18:23;;;;;;;5.88;1.80;;;26.00;58.20;;;;;;5064608;28;20131;-65
2023/07/15 11:20:57;;;;;;;5.13;2.08;;;26.10;57.70;;;;;;5048942;28;20032;-65
2023/07/15 11:23:23;;;;;;;4.13;1.77;;;26.10;57.50;;;;;;5031539;28;20035;-66
2023/07/15 11:25:50;;;;;;;4.88;2.03;;;26.00;57.40;;;;;;5067423;28;20052;-67
2023/07/15 11:28:17;;;;;;;8.13;2.00;;;26.00;57.20;;;;;;5068070;28;20032;-65
2023/07/15 11:30:46;;;;;;;4.15;1.77;;;26.00;56.70;;;;;;5064593;28;20040;-66
2023/07/15 11:33:12;;;;;;;4.22;1.90;;;26.00;56.60;;;;;;5066658;28;20026;-66
2023/07/15 11:35:41;;;;;;;4.97;2.00;;;26.10;56.50;;;;;;5048113;28;20025;-66
2023/07/15 11:38:13;;;;;;;5.53;1.80;;;26.20;56.10;;;;;;5065112;28;20021;-66
2023/07/15 11:41:09;;;;;;;4.03;1.85;;;26.10;55.90;;;;;;5063773;28;20436;-66
2023/07/15 11:43:35;;;;;;;4.03;1.77;;;26.00;55.70;;;;;;5056329;28;20051;-66
2023/07/15 11:46:02;;;;;;;4.05;1.70;;;26.00;56.10;;;;;;5033643;28;20029;-66
2023/07/15 11:48:31;;;;;;;4.38;1.65;;;26.00;56.30;;;;;;5066029;28;20024;-66
2023/07/15 11:51:03;;;;;;;3.45;1.60;;;26.10;56.30;;;;;;5063366;28;20019;-65
2023/07/15 11:53:34;;;;;;;5.82;2.15;;;26.10;56.00;;;;;;5043784;28;20102;-65
2023/07/15 11:56:01;;;;;;;3.90;1.73;;;26.20;56.20;;;;;;5048450;28;20150;-67
2023/07/15 11:58:45;;;;;;;6.72;1.88;;;26.10;56.30;;;;;;5049536;28;20170;-65
2023/07/15 12:01:13;;;;;;;4.85;1.83;;;26.10;55.90;;;;;;5049894;28;20048;-66
2023/07/15 12:03:42;;;;;;;6.32;2.30;;;26.10;55.80;;;;;;5047172;28;20025;-66
2023/07/15 12:06:16;;;;;;;7.75;1.92;;;26.20;55.50;;;;;;5049299;28;20419;-65
2023/07/15 12:09:02;;;;;;;4.95;2.03;;;26.40;55.30;;;;;;5064103;28;20024;-67
2023/07/15 12:11:29;;;;;;;3.90;1.80;;;26.50;54.90;;;;;;5063658;28;20045;-66
2023/07/15 12:13:55;;;;;;;4.05;1.60;;;26.50;54.60;;;;;;5032479;28;20408;-67
2023/07/15 12:16:22;;;;;;;5.40;1.77;;;26.60;54.80;;;;;;5066313;28;20044;-65
2023/07/15 12:18:50;;;;;;;5.03;1.70;;;26.50;54.70;;;;;;5065624;28;20507;-66
2023/07/15 12:21:16;;;;;;;4.28;1.67;;;26.50;54.80;;;;;;5063883;28;20048;-66
2023/07/15 12:23:43;;;;;;;4.15;1.70;;;26.60;54.70;;;;;;5052148;28;20385;-66
2023/07/15 12:26:09;;;;;;;4.18;1.60;;;26.70;54.40;;;;;;5050251;28;20130;-66
2023/07/15 12:28:35;;;;;;;4.18;1.83;;;26.70;53.90;;;;;;5069007;28;20024;-66
2023/07/15 12:31:01;;;;;;;3.90;1.67;;;26.80;53.70;;;;;;5067889;28;20025;-66
2023/07/15 12:33:27;;;;;;;5.18;1.77;;;26.80;53.60;;;;;;5067302;28;20376;-66
2023/07/15 12:35:53;;;;;;;3.38;1.80;;;26.90;53.40;;;;;;5070257;28;20020;-67
2023/07/15 12:38:19;;;;;;;3.58;1.67;;;27.10;53.40;;;;;;5067489;28;20312;-67
2023/07/15 12:40:45;;;;;;;3.63;1.70;;;27.20;53.20;;;;;;5070034;28;20089;-67
2023/07/15 12:43:11;;;;;;;3.60;1.50;;;27.30;53.10;;;;;;5067048;28;20045;-67
2023/07/15 12:45:37;;;;;;;4.90;1.73;;;27.30;53.00;;;;;;5069121;28;20028;-67
2023/07/15 12:48:03;;;;;;;5.00;1.77;;;27.40;53.00;;;;;;5066118;28;20083;-67
2023/07/15 12:50:29;;;;;;;5.13;1.70;;;27.40;52.80;;;;;;5066972;28;20453;-67